Time;durP1;ratioP1;P1;durP2;ratioP2;P2;SDS_P1;SDS_P2;PMS_P1;PMS_P2;Temp;Humidity;BMP_temperature;BMP_pressure;BME280_temperature;BME280_humidity;BME280_pressure;Samples;Min_cycle;Max_cycle;Signal;HPM_P1;HPM_P2
2023/10/05 00:19:44;;;;;;;8.52;5.22;;;20.10;99.90;;;;;;4591875;19;20018;-71
2023/10/05 00:21:21;;;;;;;7.07;4.70;;;20.10;99.90;;;;;;4592818;19;20024;-71
2023/10/05 00:22:55;;;;;;;7.85;5.38;;;20.10;99.90;;;;;;4593035;19;20328;-71
2023/10/05 00:24:36;;;;;;;9.20;4.93;;;20.10;99.90;;;;;;4592819;19;20006;-71
2023/10/05 00:26:13;;;;;;;8.93;4.50;;;20.10;99.90;;;;;;4592894;19;20023;-71
2023/10/05 00:27:52;;;;;;;9.38;5.22;;;20.10;99.90;;;;;;4592972;19;20002;-71
2023/10/05 00:29:40;;;;;;;8.18;5.03;;;20.10;99.90;;;;;;4592037;19;20010;-71
2023/10/05 00:31:23;;;;;;;8.75;4.70;;;20.10;99.90;;;;;;4593029;19;20003;-71
2023/10/05 00:33:00;;;;;;;8.25;4.90;;;20.10;99.90;;;;;;4592998;19;20006;-71
2023/10/05 00:34:34;;;;;;;8.98;5.60;;;20.10;99.90;;;;;;4592564;19;20010;-71
2023/10/05 00:36:13;;;;;;;10.38;4.43;;;20.10;99.90;;;;;;4592826;19;20005;-71
2023/10/05 00:37:48;;;;;;;10.25;5.75;;;20.10;99.90;;;;;;4592584;19;20013;-71
2023/10/05 00:39:22;;;;;;;8.65;4.82;;;20.10;99.90;;;;;;4591892;19;20010;-71
2023/10/05 00:41:08;;;;;;;8.30;4.90;;;20.10;99.90;;;;;;4592676;19;20031;-71
2023/10/05 00:42:42;;;;;;;7.82;4.93;;;20.10;99.90;;;;;;4592589;19;20007;-71
2023/10/05 00:44:17;;;;;;;9.00;4.82;;;20.10;99.90;;;;;;4592401;19;20017;-71
2023/10/05 00:45:53;;;;;;;8.55;4.72;;;20.10;99.90;;;;;;4591168;19;20007;-71
2023/10/05 00:47:27;;;;;;;8.90;5.30;;;20.10;99.90;;;;;;4591046;19;20002;-71
2023/10/05 00:49:15;;;;;;;9.18;5.18;;;20.10;99.90;;;;;;4590568;19;20009;-71
2023/10/05 00:50:51;;;;;;;10.07;4.82;;;20.10;99.90;;;;;;4589852;19;20006;-71
2023/10/05 00:52:29;;;;;;;7.35;4.90;;;20.10;99.90;;;;;;4592153;19;20326;-71
2023/10/05 00:54:16;;;;;;;8.00;4.85;;;20.00;99.90;;;;;;4590800;19;20018;-71
2023/10/05 00:55:55;;;;;;;8.13;5.35;;;20.00;99.90;;;;;;4592104;19;20013;-71
2023/10/05 00:57:33;;;;;;;7.78;4.57;;;20.10;99.90;;;;;;4590905;19;20039;-71
2023/10/05 00:59:07;;;;;;;10.23;5.68;;;20.10;99.90;;;;;;4590160;19;20015;-71
2023/10/05 01:00:50;;;;;;;8.82;5.65;;;20.10;99.90;;;;;;4592132;19;20026;-71
2023/10/05 01:02:25;;;;;;;10.93;5.53;;;20.10;99.90;;;;;;4592196;19;20006;-71
2023/10/05 01:04:18;;;;;;;8.02;5.22;;;20.10;99.90;;;;;;4590945;19;20003;-71
2023/10/05 01:06:26;;;;;;;8.75;4.93;;;20.10;99.90;;;;;;4590757;19;20060;-71
2023/10/05 01:07:56;;;;;;;10.32;5.32;;;20.10;99.90;;;;;;4591992;19;20014;-71
2023/10/05 01:11:14;;;;;;;7.88;4.88;;;20.10;99.90;;;;;;4591999;19;20013;-71
2023/10/05 01:12:48;;;;;;;;;;;20.00;99.90;;;;;;4591600;19;20003;-71
2023/10/05 01:14:27;;;;;;;9.18;4.95;;;20.00;99.90;;;;;;4591808;19;19915;-71
2023/10/05 01:16:21;;;;;;;7.40;4.93;;;20.10;99.90;;;;;;4595948;19;20019;-71
2023/10/05 01:17:56;;;;;;;9.27;5.32;;;20.00;99.90;;;;;;4597050;19;20007;-71
2023/10/05 01:19:32;;;;;;;10.88;5.53;;;20.00;99.90;;;;;;4594665;19;20318;-71
2023/10/05 01:21:08;;;;;;;6.85;4.30;;;20.00;99.90;;;;;;4596675;19;20006;-71
2023/10/05 01:22:44;;;;;;;7.82;4.78;;;20.00;99.90;;;;;;4596596;19;20023;-71
2023/10/05 01:24:18;;;;;;;9.98;5.03;;;20.00;99.90;;;;;;4596535;19;20425;-71
2023/10/05 01:25:55;;;;;;;7.95;5.07;;;20.00;99.90;;;;;;4596556;19;20106;-71
2023/10/05 01:27:30;;;;;;;9.43;4.78;;;20.00;99.90;;;;;;4596784;19;20006;-71
2023/10/05 01:29:06;;;;;;;8.10;4.85;;;20.00;99.90;;;;;;4595314;19;20044;-71
2023/10/05 01:30:41;;;;;;;8.60;5.00;;;20.00;99.90;;;;;;4594784;19;20010;-71
2023/10/05 01:32:16;;;;;;;9.80;5.50;;;20.00;99.90;;;;;;4596623;19;20457;-71
2023/10/05 01:33:50;;;;;;;8.15;5.13;;;20.00;99.90;;;;;;4596285;19;20094;-71
2023/10/05 01:35:27;;;;;;;8.75;4.70;;;20.00;99.90;;;;;;4596642;19;20006;-71
2023/10/05 01:37:09;;;;;;;8.02;5.25;;;20.00;99.90;;;;;;4596246;19;20006;-71
2023/10/05 01:38:45;;;;;;;8.43;4.72;;;20.00;99.90;;;;;;4595775;19;20025;-71
2023/10/05 01:40:30;;;;;;;6.57;4.18;;;20.00;99.90;;;;;;4596257;19;20446;-71
2023/10/05 01:42:11;;;;;;;9.25;5.40;;;20.00;99.90;;;;;;4594863;19;20006;-71
2023/10/05 01:43:45;;;;;;;8.18;5.55;;;20.00;99.90;;;;;;4594893;19;20021;-71
2023/10/05 01:45:29;;;;;;;8.35;5.00;;;20.00;99.90;;;;;;4595922;19;20018;-71
2023/10/05 01:47:05;;;;;;;7.22;4.63;;;20.00;99.90;;;;;;4594772;19;20029;-71
2023/10/05 01:48:40;;;;;;;7.78;5.00;;;20.00;99.90;;;;;;4595196;19;20006;-71
2023/10/05 01:50:19;;;;;;;9.75;5.18;;;20.00;99.90;;;;;;4594996;19;20007;-71
2023/10/05 01:51:53;;;;;;;6.88;4.47;;;20.00;99.90;;;;;;4594625;19;20466;-71
2023/10/05 01:53:27;;;;;;;8.13;4.60;;;20.00;99.90;;;;;;4595618;19;20003;-71
2023/10/05 01:55:03;;;;;;;8.73;4.72;;;20.00;99.90;;;;;;4596445;19;20009;-71
2023/10/05 01:56:39;;;;;;;9.52;5.53;;;20.00;99.90;;;;;;4596156;19;20002;-71
2023/10/05 01:58:26;;;;;;;7.63;5.13;;;20.00;99.90;;;;;;4596029;19;20298;-71
2023/10/05 02:00:03;;;;;;;6.82;4.60;;;20.00;99.90;;;;;;4594789;19;20013;-71
2023/10/05 02:01:39;;;;;;;9.65;5.30;;;20.00;99.90;;;;;;4595469;19;20333;-71
2023/10/05 02:03:17;;;;;;;8.20;5.00;;;20.00;99.90;;;;;;4595736;19;20011;-71
2023/10/05 02:04:54;;;;;;;9.55;5.30;;;20.00;99.90;;;;;;4594737;19;20519;-71
2023/10/05 02:06:29;;;;;;;7.70;5.05;;;20.00;99.90;;;;;;4594321;19;20434;-71
2023/10/05 02:08:04;;;;;;;8.57;4.38;;;20.00;99.90;;;;;;4595246;19;20003;-71
2023/10/05 02:09:39;;;;;;;9.10;5.30;;;20.00;99.90;;;;;;4593877;19;20077;-71
2023/10/05 02:11:27;;;;;;;8.43;4.78;;;20.00;99.90;;;;;;4594274;19;20100;-71
2023/10/05 02:13:02;;;;;;;9.02;4.88;;;20.00;99.90;;;;;;4595803;19;20070;-71
2023/10/05 02:14:41;;;;;;;9.77;5.50;;;20.00;99.90;;;;;;4595642;19;20036;-71
2023/10/05 02:16:20;;;;;;;8.18;5.25;;;20.00;99.90;;;;;;4594249;19;20306;-71
2023/10/05 02:18:05;;;;;;;8.23;5.10;;;20.00;99.90;;;;;;4595385;19;20009;-71
2023/10/05 02:19:41;;;;;;;8.38;5.13;;;19.90;99.90;;;;;;4593790;19;20022;-71
2023/10/05 02:21:27;;;;;;;8.68;5.28;;;20.00;99.90;;;;;;4595701;19;20002;-71
2023/10/05 02:23:15;;;;;;;9.38;5.40;;;20.00;99.90;;;;;;4594138;19;20457;-71
2023/10/05 02:24:54;;;;;;;9.45;5.43;;;20.00;99.90;;;;;;4595244;19;20440;-71
2023/10/05 02:28:04;;;;;;;8.88;5.18;;;20.00;99.90;;;;;;4595260;19;20020;-71
2023/10/05 02:29:41;;;;;;;7.80;5.03;;;20.00;99.90;;;;;;4593533;19;20014;-71
2023/10/05 02:31:15;;;;;;;8.73;5.47;;;20.00;99.90;;;;;;4595223;19;20018;-71
2023/10/05 02:32:50;;;;;;;9.40;5.78;;;20.00;99.90;;;;;;4595181;19;20002;-71
2023/10/05 02:34:33;;;;;;;8.95;5.22;;;20.00;99.90;;;;;;4595195;19;20321;-71
2023/10/05 02:36:21;;;;;;;8.65;5.70;;;20.00;99.90;;;;;;4595235;19;20011;-71
2023/10/05 02:38:03;;;;;;;10.27;5.75;;;20.00;99.90;;;;;;4595426;19;20013;-71
2023/10/05 02:39:43;;;;;;;9.48;5.63;;;20.00;99.90;;;;;;4592173;19;20010;-71
2023/10/05 02:41:24;;;;;;;6.85;4.75;;;20.00;99.90;;;;;;4594975;19;19999;-71
2023/10/05 02:43:02;;;;;;;7.88;4.65;;;20.00;99.90;;;;;;4595056;19;20025;-71
2023/10/05 02:44:40;;;;;;;8.60;5.03;;;19.90;99.90;;;;;;4595289;19;20315;-71
2023/10/05 02:46:17;;;;;;;8.48;5.40;;;20.00;99.90;;;;;;4594943;19;20029;-71
2023/10/05 02:47:54;;;;;;;7.88;5.38;;;20.00;99.90;;;;;;4593474;19;20006;-71
2023/10/05 02:49:29;;;;;;;7.60;5.10;;;19.90;99.90;;;;;;4593093;19;20333;-71
2023/10/05 02:51:06;;;;;;;9.00;5.40;;;20.00;99.90;;;;;;4594808;19;20029;-70
2023/10/05 02:52:40;;;;;;;10.82;6.15;;;20.00;99.90;;;;;;4594829;19;20037;-71
2023/10/05 02:54:15;;;;;;;10.02;5.45;;;19.90;99.90;;;;;;4595087;19;20007;-71
2023/10/05 02:55:53;;;;;;;7.38;5.35;;;19.90;99.90;;;;;;4593354;19;20338;-71
2023/10/05 02:57:27;;;;;;;8.70;5.07;;;19.90;99.90;;;;;;4593401;19;20430;-71
2023/10/05 02:59:07;;;;;;;8.02;5.30;;;20.00;99.90;;;;;;4593459;19;20303;-70
2023/10/05 03:00:44;;;;;;;8.15;5.38;;;20.00;99.90;;;;;;4594679;19;20036;-71
2023/10/05 03:02:18;;;;;;;7.35;5.30;;;20.10;99.90;;;;;;4594615;19;20006;-70
2023/10/05 03:03:55;;;;;;;9.82;5.72;;;20.20;99.90;;;;;;4593260;19;20013;-71
2023/10/05 03:05:32;;;;;;;7.95;5.47;;;20.30;99.90;;;;;;4593510;19;20390;-70
2023/10/05 03:07:07;;;;;;;8.20;5.78;;;20.30;99.90;;;;;;4594297;19;20007;-71
2023/10/05 03:08:43;;;;;;;9.48;5.82;;;20.40;99.90;;;;;;4592808;19;20033;-71
2023/10/05 03:10:17;;;;;;;9.10;5.80;;;20.50;99.90;;;;;;4592226;19;20003;-71
2023/10/05 03:11:51;;;;;;;9.65;5.72;;;20.50;99.90;;;;;;4593919;19;20007;-72
2023/10/05 03:13:28;;;;;;;9.82;5.60;;;20.50;99.90;;;;;;4594390;19;20006;-71
2023/10/05 03:15:06;;;;;;;9.00;5.15;;;20.50;99.90;;;;;;4594273;19;20020;-71
2023/10/05 03:16:54;;;;;;;7.28;5.10;;;20.60;99.90;;;;;;4593284;19;20013;-71
2023/10/05 03:18:30;;;;;;;10.02;6.18;;;20.60;99.90;;;;;;4593371;19;20433;-71
2023/10/05 03:20:17;;;;;;;8.45;5.70;;;20.60;99.90;;;;;;4594309;19;19995;-71
2023/10/05 03:21:57;;;;;;;10.30;5.63;;;20.60;99.90;;;;;;4593198;19;20023;-71
2023/10/05 03:23:37;;;;;;;9.57;5.25;;;20.60;99.90;;;;;;4593969;19;20011;-71
2023/10/05 03:25:14;;;;;;;7.88;4.93;;;20.60;99.90;;;;;;4594103;19;20028;-71
2023/10/05 03:26:51;;;;;;;9.02;5.00;;;20.60;99.90;;;;;;4594346;19;20007;-71
2023/10/05 03:28:27;;;;;;;8.18;5.25;;;20.60;99.90;;;;;;4593729;19;20007;-71
2023/10/05 03:30:06;;;;;;;7.05;4.65;;;20.50;99.90;;;;;;4593386;19;20489;-71
2023/10/05 03:31:55;;;;;;;8.80;5.10;;;20.50;99.90;;;;;;4592961;19;20003;-71
2023/10/05 03:33:33;;;;;;;10.65;5.70;;;20.50;99.90;;;;;;4594152;19;20007;-70
2023/10/05 03:35:09;;;;;;;9.85;5.38;;;20.50;99.90;;;;;;4592603;19;20456;-71
2023/10/05 03:36:47;;;;;;;8.40;5.00;;;20.50;99.90;;;;;;4593568;19;20013;-71
2023/10/05 03:38:25;;;;;;;10.10;6.07;;;20.50;99.90;;;;;;4592041;19;20006;-71
2023/10/05 03:41:39;;;;;;;9.23;5.25;;;20.50;99.90;;;;;;4593691;19;20345;-71
2023/10/05 03:43:14;;;;;;;8.10;4.90;;;20.50;99.90;;;;;;4593777;19;20007;-71
2023/10/05 03:45:04;;;;;;;8.15;5.38;;;20.40;99.90;;;;;;4593901;19;20005;-71
2023/10/05 03:46:38;;;;;;;8.70;5.43;;;20.40;99.90;;;;;;4593659;19;20002;-71
2023/10/05 03:48:13;;;;;;;9.30;4.80;;;20.40;99.90;;;;;;4593492;19;20035;-71
2023/10/05 03:49:55;;;;;;;8.98;5.00;;;20.40;99.90;;;;;;4591928;19;20005;-71
2023/10/05 03:51:31;;;;;;;;;;;20.40;99.90;;;;;;4594285;19;19998;-71
2023/10/05 03:53:15;;;;;;;9.48;5.47;;;20.40;99.90;;;;;;4593812;19;19915;-71
2023/10/05 03:54:53;;;;;;;7.03;4.60;;;20.40;99.90;;;;;;4592238;19;20029;-70
2023/10/05 03:56:29;;;;;;;7.78;4.88;;;20.40;99.90;;;;;;4593315;19;20009;-71
2023/10/05 03:58:07;;;;;;;7.68;4.93;;;20.40;99.90;;;;;;4593800;19;20010;-71
2023/10/05 03:59:41;;;;;;;9.23;4.80;;;20.30;99.90;;;;;;4593434;19;20311;-70
2023/10/05 04:01:18;;;;;;;8.88;5.32;;;20.40;99.90;;;;;;4593352;19;20433;-71
2023/10/05 04:02:56;;;;;;;8.90;5.07;;;20.30;99.90;;;;;;4593650;19;20014;-71
2023/10/05 04:04:35;;;;;;;7.90;4.85;;;20.30;99.90;;;;;;4593380;19;20002;-71
2023/10/05 04:06:17;;;;;;;7.82;4.50;;;20.30;99.90;;;;;;4593336;19;20007;-71
2023/10/05 04:08:10;;;;;;;10.27;5.13;;;20.30;99.90;;;;;;4591869;19;20038;-71
2023/10/05 04:09:47;;;;;;;10.10;5.47;;;20.30;99.90;;;;;;4591932;19;20077;-70
2023/10/05 04:11:21;;;;;;;8.98;4.78;;;20.30;99.90;;;;;;4592818;19;19998;-70
2023/10/05 04:12:57;;;;;;;10.00;5.55;;;20.20;99.90;;;;;;4593147;19;20029;-70
2023/10/05 04:14:34;;;;;;;7.60;4.80;;;20.20;99.90;;;;;;4593039;19;20010;-72
2023/10/05 04:16:13;;;;;;;10.10;5.50;;;20.20;99.90;;;;;;4593443;19;20002;-71
2023/10/05 04:17:53;;;;;;;11.07;4.50;;;20.20;99.90;;;;;;4593126;19;20023;-71
2023/10/05 04:19:28;;;;;;;7.20;4.88;;;20.30;99.90;;;;;;4590391;19;20011;-70
2023/10/05 04:21:03;;;;;;;7.53;4.80;;;20.30;99.90;;;;;;4592711;19;20029;-71
2023/10/05 04:22:38;;;;;;;8.65;5.15;;;20.30;99.90;;;;;;4593413;19;20006;-71
2023/10/05 04:24:15;;;;;;;8.10;4.93;;;20.30;99.90;;;;;;4592854;19;20021;-71
2023/10/05 04:25:51;;;;;;;9.90;5.10;;;20.30;99.90;;;;;;4593127;19;20029;-71
2023/10/05 04:27:28;;;;;;;9.57;5.28;;;20.30;99.90;;;;;;4592804;19;20433;-71
2023/10/05 04:29:08;;;;;;;8.70;5.60;;;20.30;99.90;;;;;;4592024;19;20020;-72
2023/10/05 04:30:42;;;;;;;7.82;5.25;;;20.40;99.90;;;;;;4590554;19;20037;-71
2023/10/05 04:32:18;;;;;;;10.30;5.63;;;20.40;99.90;;;;;;4592457;19;20452;-71
2023/10/05 04:34:00;;;;;;;9.02;5.53;;;20.40;99.90;;;;;;4592906;19;20310;-71
2023/10/05 04:35:42;;;;;;;11.43;6.35;;;20.50;99.90;;;;;;4591598;19;20023;-71
2023/10/05 04:37:19;;;;;;;9.15;5.70;;;20.50;99.90;;;;;;4592432;19;20066;-71
2023/10/05 04:38:54;;;;;;;8.05;5.57;;;20.60;99.90;;;;;;4591884;19;20470;-72
2023/10/05 04:40:28;;;;;;;9.38;4.95;;;20.70;99.90;;;;;;4591469;19;20006;-71
2023/10/05 04:42:11;;;;;;;8.85;5.65;;;20.80;99.90;;;;;;4591831;19;20007;-71
2023/10/05 04:43:53;;;;;;;11.23;6.15;;;20.80;99.90;;;;;;4592676;19;20418;-71
2023/10/05 04:45:47;;;;;;;9.70;5.47;;;20.90;99.90;;;;;;4590525;19;20077;-71
2023/10/05 04:47:23;;;;;;;8.82;5.55;;;21.00;99.90;;;;;;4592495;19;20069;-72
2023/10/05 04:49:07;;;;;;;9.70;5.25;;;21.10;99.90;;;;;;4591421;19;20007;-72
2023/10/05 04:50:43;;;;;;;10.00;6.72;;;21.10;99.90;;;;;;4591390;19;20011;-72
2023/10/05 04:52:23;;;;;;;9.95;5.15;;;21.20;99.90;;;;;;4592598;19;20376;-71
2023/10/05 04:53:59;;;;;;;10.40;5.03;;;21.20;99.90;;;;;;4592661;19;20444;-72
2023/10/05 04:55:41;;;;;;;8.88;5.25;;;21.20;99.90;;;;;;4590987;19;20018;-72
2023/10/05 04:57:34;;;;;;;8.35;5.00;;;21.20;99.90;;;;;;4592306;19;20007;-72
2023/10/05 05:02:35;;;;;;;10.45;4.72;;;21.30;99.90;;;;;;4592079;19;20037;-71
2023/10/05 05:07:44;;;;;;;9.23;5.85;;;21.30;99.90;;;;;;4592011;19;20010;-71
2023/10/05 05:09:19;;;;;;;8.63;5.28;;;21.30;99.90;;;;;;4590994;19;20073;-72
2023/10/05 05:10:53;;;;;;;8.02;5.32;;;21.40;99.90;;;;;;4590964;19;20006;-72
2023/10/05 05:12:31;;;;;;;11.48;6.18;;;21.40;99.90;;;;;;4592283;19;20007;-71
2023/10/05 05:14:06;;;;;;;8.77;5.13;;;21.40;99.90;;;;;;4591854;19;20363;-71
2023/10/05 05:15:40;;;;;;;8.10;5.20;;;21.50;99.90;;;;;;4590806;19;20027;-72
2023/10/05 05:17:18;;;;;;;8.30;5.60;;;21.50;99.90;;;;;;4591493;19;20351;-72
2023/10/05 05:18:55;;;;;;;8.02;5.38;;;21.50;99.90;;;;;;4590924;19;20018;-71
2023/10/05 05:20:29;;;;;;;8.68;4.88;;;21.60;99.90;;;;;;4591885;19;20006;-71
2023/10/05 05:22:05;;;;;;;9.75;5.40;;;21.60;99.90;;;;;;4592158;19;20302;-72
2023/10/05 05:23:42;;;;;;;8.45;5.18;;;21.60;99.90;;;;;;4590437;19;19999;-71
2023/10/05 05:25:19;;;;;;;10.23;5.88;;;21.60;99.90;;;;;;4590492;19;20023;-71
2023/10/05 05:29:02;;;;;;;9.65;5.72;;;21.70;99.90;;;;;;4588513;19;20042;-71
2023/10/05 05:30:40;;;;;;;7.72;5.40;;;21.70;99.90;;;;;;4588414;19;20331;-71
2023/10/05 05:32:16;;;;;;;8.88;5.65;;;21.70;99.90;;;;;;4589484;19;20006;-72
2023/10/05 05:33:49;;;;;;;8.50;5.15;;;21.70;99.90;;;;;;4589180;19;20078;-72
2023/10/05 05:35:24;;;;;;;7.82;5.30;;;21.80;99.90;;;;;;4589360;19;20453;-71
2023/10/05 05:37:01;;;;;;;9.23;5.22;;;21.80;99.90;;;;;;4589181;19;20364;-72
2023/10/05 05:38:35;;;;;;;7.72;5.20;;;21.80;99.90;;;;;;4589123;19;20082;-72
2023/10/05 05:41:19;;;;;;;8.88;5.00;;;21.80;99.90;;;;;;4588708;19;20382;-72
2023/10/05 05:43:11;;;;;;;8.75;5.32;;;21.80;99.90;;;;;;4588768;19;20004;-72
2023/10/05 05:44:56;;;;;;;9.38;4.95;;;21.80;99.90;;;;;;4589465;19;20011;-72
2023/10/05 05:46:38;;;;;;;;;;;21.80;99.90;;;;;;4590203;19;20007;-69
2023/10/05 05:48:15;;;;;;;9.10;5.82;;;21.70;99.90;;;;;;4589262;19;19915;-72
2023/10/05 05:49:56;;;;;;;9.40;5.18;;;21.70;99.90;;;;;;4588833;19;20006;-72
2023/10/05 05:51:31;;;;;;;8.75;4.85;;;21.70;99.90;;;;;;4588976;19;20011;-71
2023/10/05 05:53:11;;;;;;;8.20;5.13;;;21.60;99.90;;;;;;4589167;19;20082;-72
2023/10/05 05:54:48;;;;;;;9.40;5.60;;;21.60;99.90;;;;;;4589159;19;20007;-72
2023/10/05 05:56:28;;;;;;;8.80;5.55;;;21.60;99.90;;;;;;4589102;19;20027;-72
2023/10/05 05:58:02;;;;;;;9.05;5.57;;;21.60;99.90;;;;;;4589365;19;20449;-72
2023/10/05 05:59:39;;;;;;;8.68;5.13;;;21.60;99.90;;;;;;4587573;19;20010;-71
2023/10/05 06:02:08;;;;;;;7.10;5.03;;;21.50;99.90;;;;;;4590153;19;20026;-72
2023/10/05 06:03:58;;;;;;;8.88;5.90;;;21.50;99.90;;;;;;4591136;19;20019;-72
2023/10/05 06:05:33;;;;;;;7.57;5.78;;;21.40;99.90;;;;;;4594082;19;20007;-71
2023/10/05 06:07:11;;;;;;;8.48;6.38;;;19.80;99.90;;;;;;4595649;19;20093;-72
2023/10/05 06:08:47;;;;;;;7.85;6.15;;;18.20;99.90;;;;;;4595165;19;20370;-71
2023/10/05 06:10:28;;;;;;;9.18;6.60;;;17.40;99.90;;;;;;4595083;19;20426;-71
2023/10/05 06:12:03;;;;;;;8.35;6.55;;;17.00;99.90;;;;;;4594583;19;20013;-76
2023/10/05 06:13:40;;;;;;;8.75;6.32;;;16.70;99.90;;;;;;4594631;19;19999;-76
2023/10/05 06:15:19;;;;;;;9.40;6.78;;;16.60;99.90;;;;;;4594280;19;19998;-76
2023/10/05 06:16:54;;;;;;;9.18;6.13;;;16.50;99.90;;;;;;4594506;19;20013;-76
2023/10/05 06:18:31;;;;;;;8.50;6.00;;;16.50;99.90;;;;;;4594363;19;19999;-76
2023/10/05 06:20:13;;;;;;;7.95;5.75;;;16.40;99.90;;;;;;4594130;19;20078;-76
2023/10/05 06:21:48;;;;;;;9.23;6.35;;;16.40;99.90;;;;;;4595271;19;20039;-76
2023/10/05 06:23:24;;;;;;;9.98;6.30;;;16.30;99.90;;;;;;4595324;19;20018;-76
2023/10/05 06:25:00;;;;;;;8.52;6.03;;;16.30;99.90;;;;;;4595616;19;20006;-76
2023/10/05 06:26:35;;;;;;;8.77;6.43;;;16.30;99.90;;;;;;4594134;19;20009;-77
2023/10/05 06:28:10;;;;;;;8.48;6.10;;;16.20;99.90;;;;;;4594884;19;20003;-75
2023/10/05 06:29:45;;;;;;;8.98;5.93;;;16.20;99.90;;;;;;4595731;19;20302;-77
2023/10/05 06:31:20;;;;;;;8.60;6.00;;;16.20;99.90;;;;;;4594061;19;20345;-77
2023/10/05 06:32:54;;;;;;;9.00;6.13;;;16.20;99.90;;;;;;4593895;19;20448;-77
2023/10/05 06:34:29;;;;;;;8.30;5.90;;;16.20;99.90;;;;;;4594537;19;20069;-77
2023/10/05 06:36:06;;;;;;;8.68;6.15;;;16.20;99.90;;;;;;4594785;19;20005;-78
2023/10/05 06:37:43;;;;;;;9.32;5.97;;;16.20;99.90;;;;;;4595156;19;20058;-80
2023/10/05 06:39:18;;;;;;;8.07;5.75;;;16.20;99.90;;;;;;4592726;19;20043;-76
2023/10/05 06:40:53;;;;;;;7.93;5.40;;;16.20;99.90;;;;;;4594604;19;20007;-77
2023/10/05 06:42:26;;;;;;;8.07;5.63;;;16.20;99.90;;;;;;4594907;19;20002;-78
2023/10/05 06:44:02;;;;;;;9.73;6.32;;;16.20;99.90;;;;;;4595284;19;20011;-78
2023/10/05 06:45:36;;;;;;;8.13;5.63;;;16.20;99.90;;;;;;4595163;19;20007;-77
2023/10/05 06:47:18;;;;;;;10.07;5.97;;;16.20;99.90;;;;;;4594886;19;20006;-77
2023/10/05 06:48:54;;;;;;;8.63;5.60;;;16.20;99.90;;;;;;4594148;19;20021;-79
2023/10/05 06:50:28;;;;;;;9.07;5.93;;;16.20;99.90;;;;;;4592597;19;19994;-76
2023/10/05 06:52:06;;;;;;;9.38;6.07;;;16.20;99.90;;;;;;4594358;19;20003;-76
2023/10/05 06:53:41;;;;;;;9.23;6.25;;;16.20;99.90;;;;;;4594673;19;20018;-77
2023/10/05 06:55:17;;;;;;;8.10;5.75;;;16.20;99.90;;;;;;4593293;19;20017;-76
2023/10/05 06:56:51;;;;;;;8.35;5.75;;;16.10;99.90;;;;;;4593667;19;20430;-77
2023/10/05 06:58:27;;;;;;;7.28;5.35;;;16.10;99.90;;;;;;4593951;19;20014;-76
2023/10/05 07:00:00;;;;;;;9.68;6.32;;;16.20;99.90;;;;;;4594686;19;20010;-71
2023/10/05 07:01:37;;;;;;;10.50;6.97;;;16.10;99.90;;;;;;4594502;19;20009;-70
2023/10/05 07:03:12;;;;;;;8.88;6.22;;;16.10;99.90;;;;;;4594880;19;20023;-71
2023/10/05 07:04:46;;;;;;;8.98;5.97;;;16.10;99.90;;;;;;4594431;19;20040;-71
2023/10/05 07:06:32;;;;;;;8.73;5.57;;;16.10;99.90;;;;;;4594429;19;20045;-71
2023/10/05 07:08:22;;;;;;;7.70;5.53;;;16.10;99.90;;;;;;4592882;19;20007;-71
2023/10/05 07:09:56;;;;;;;9.50;6.32;;;16.10;99.90;;;;;;4594088;19;20093;-71
2023/10/05 07:11:30;;;;;;;8.35;5.50;;;16.20;99.90;;;;;;4594364;19;20003;-71
2023/10/05 07:13:08;;;;;;;8.10;5.68;;;16.20;99.90;;;;;;4591744;19;20002;-71
2023/10/05 07:14:44;;;;;;;8.95;6.00;;;16.20;99.90;;;;;;4594437;19;19998;-71
2023/10/05 07:16:18;;;;;;;7.72;5.28;;;16.20;99.90;;;;;;4594211;19;20337;-71
2023/10/05 07:17:53;;;;;;;7.57;5.20;;;16.20;99.90;;;;;;4592962;19;20019;-71
2023/10/05 07:19:27;;;;;;;9.00;5.38;;;16.20;99.90;;;;;;4592250;19;20018;-71
2023/10/05 07:21:04;;;;;;;6.90;5.22;;;16.30;99.90;;;;;;4592754;19;20422;-71
2023/10/05 07:22:47;;;;;;;7.65;5.57;;;16.30;99.90;;;;;;4592554;19;20034;-71
2023/10/05 07:24:27;;;;;;;7.93;5.72;;;16.30;99.90;;;;;;4592537;19;20011;-71
2023/10/05 07:26:01;;;;;;;9.50;5.78;;;16.30;99.90;;;;;;4593520;19;20438;-71
2023/10/05 07:27:36;;;;;;;7.55;5.57;;;16.30;99.90;;;;;;4594447;19;20007;-71
2023/10/05 07:29:10;;;;;;;9.02;5.75;;;16.30;99.90;;;;;;4593228;19;20418;-71
2023/10/05 07:30:45;;;;;;;8.40;5.47;;;16.30;99.90;;;;;;4593266;19;19998;-71
2023/10/05 07:32:20;;;;;;;7.22;4.85;;;16.40;99.90;;;;;;4592558;19;20011;-71
2023/10/05 07:33:54;;;;;;;8.15;5.32;;;16.30;99.90;;;;;;4593078;19;20002;-71
2023/10/05 07:35:27;;;;;;;8.27;5.63;;;16.30;99.90;;;;;;4593364;19;20011;-71
2023/10/05 07:37:02;;;;;;;8.13;5.13;;;16.40;99.90;;;;;;4593977;19;20469;-71
2023/10/05 07:38:38;;;;;;;9.88;5.68;;;16.40;99.90;;;;;;4593468;19;20010;-71
2023/10/05 07:40:15;;;;;;;8.75;5.50;;;16.30;99.90;;;;;;4593691;19;20358;-71
2023/10/05 07:41:51;;;;;;;8.70;5.30;;;16.40;99.90;;;;;;4593737;19;20074;-71
2023/10/05 07:43:27;;;;;;;8.57;5.22;;;16.40;99.90;;;;;;4593949;19;20006;-71
2023/10/05 07:45:01;;;;;;;9.10;5.93;;;16.40;99.90;;;;;;4593690;19;20444;-71
2023/10/05 07:46:38;;;;;;;8.25;5.40;;;16.40;99.90;;;;;;4594366;19;20301;-71
2023/10/05 07:48:12;;;;;;;7.40;5.32;;;16.40;99.90;;;;;;4592374;19;20010;-71
2023/10/05 07:49:46;;;;;;;8.50;5.10;;;16.40;99.90;;;;;;4593072;19;20015;-71
2023/10/05 07:51:22;;;;;;;8.70;5.53;;;16.40;99.90;;;;;;4592502;19;20006;-71
2023/10/05 07:52:58;;;;;;;8.20;5.30;;;16.40;99.90;;;;;;4593416;19;19998;-70
2023/10/05 09:11:08;;;;;;;8.07;4.40;;;16.70;99.90;;;;;;4585255;19;20018;-73
2023/10/05 09:12:50;;;;;;;6.65;4.13;;;16.70;99.90;;;;;;4590860;19;20425;-69
2023/10/05 09:14:38;;;;;;;7.20;4.90;;;16.70;99.90;;;;;;4591022;19;20023;-68
2023/10/05 09:16:22;;;;;;;8.40;4.95;;;16.70;99.90;;;;;;4592236;19;20089;-74
2023/10/05 09:17:57;;;;;;;6.88;4.20;;;16.80;99.90;;;;;;4593198;19;20436;-65
2023/10/05 09:19:37;;;;;;;10.65;7.35;;;16.70;99.90;;;;;;4591758;19;20007;-72
2023/10/05 09:21:12;;;;;;;7.53;4.78;;;16.80;99.90;;;;;;4591920;19;20023;-70
2023/10/05 09:22:51;;;;;;;7.55;4.15;;;16.80;99.90;;;;;;4591789;19;20014;-69
2023/10/05 09:24:31;;;;;;;7.30;4.55;;;16.80;99.90;;;;;;4590428;19;19999;-69
2023/10/05 09:26:06;;;;;;;8.25;4.63;;;16.80;99.90;;;;;;4591825;19;20301;-69
2023/10/05 09:27:50;;;;;;;7.18;4.90;;;16.80;99.90;;;;;;4590456;19;20007;-68
2023/10/05 09:29:33;;;;;;;9.60;4.75;;;16.70;99.90;;;;;;4591353;19;20070;-70
2023/10/05 09:31:07;;;;;;;7.63;5.07;;;16.70;99.90;;;;;;4588765;19;20307;-69
2023/10/05 09:32:44;;;;;;;7.07;4.30;;;16.80;99.90;;;;;;4591004;19;20006;-69
2023/10/05 09:34:37;;;;;;;5.95;3.83;;;16.80;99.90;;;;;;4591591;19;20009;-69
2023/10/05 09:36:19;;;;;;;6.18;3.95;;;16.70;99.90;;;;;;4591407;19;20010;-69
2023/10/05 09:38:00;;;;;;;6.50;4.15;;;16.80;99.90;;;;;;4595032;19;20006;-69
2023/10/05 09:39:55;;;;;;;7.35;4.40;;;16.80;99.90;;;;;;4595999;19;20290;-68
2023/10/05 09:41:29;;;;;;;6.82;4.25;;;16.80;99.90;;;;;;4594960;19;20030;-68
2023/10/05 09:43:05;;;;;;;8.63;4.38;;;16.70;99.90;;;;;;4596229;19;20039;-68
2023/10/05 09:44:40;;;;;;;6.00;3.97;;;16.80;99.90;;;;;;4596440;19;20078;-68
2023/10/05 09:46:15;;;;;;;8.38;4.90;;;16.70;99.90;;;;;;4594977;19;20460;-69
2023/10/05 09:47:53;;;;;;;7.82;4.47;;;16.70;99.90;;;;;;4594613;19;20022;-68
2023/10/05 09:49:31;;;;;;;8.23;4.65;;;16.80;99.90;;;;;;4594977;19;20014;-68
2023/10/05 09:51:10;;;;;;;6.38;4.05;;;16.70;99.90;;;;;;4592754;19;20006;-68
2023/10/05 09:52:46;;;;;;;8.38;4.80;;;16.80;99.90;;;;;;4594720;19;20166;-69
2023/10/05 09:54:23;;;;;;;8.65;5.25;;;16.80;99.90;;;;;;4595640;19;20003;-71
2023/10/05 09:55:59;;;;;;;7.38;4.72;;;16.80;99.90;;;;;;4594645;19;20026;-69
2023/10/05 09:57:46;;;;;;;7.47;4.03;;;16.80;99.90;;;;;;4595615;19;20033;-70
2023/10/05 09:59:22;;;;;;;6.38;4.00;;;16.70;99.90;;;;;;4594743;19;20055;-69
2023/10/05 10:00:57;;;;;;;9.05;5.20;;;16.80;99.90;;;;;;4593108;19;20007;-69
2023/10/05 10:02:34;;;;;;;8.63;4.97;;;16.80;99.90;;;;;;4595808;19;20489;-69
2023/10/05 10:04:09;;;;;;;6.97;3.72;;;16.80;99.90;;;;;;4596036;19;20005;-69
2023/10/05 10:06:07;;;;;;;7.80;3.97;;;16.80;99.90;;;;;;4594846;19;20010;-70
2023/10/05 10:07:49;;;;;;;9.43;5.35;;;16.80;99.90;;;;;;4594413;19;20014;-69
2023/10/05 10:09:26;;;;;;;7.93;4.65;;;16.80;99.90;;;;;;4594319;19;20044;-69
2023/10/05 10:11:02;;;;;;;8.10;4.63;;;16.80;99.90;;;;;;4593007;19;20496;-68
2023/10/05 10:12:42;;;;;;;5.55;3.67;;;16.80;99.90;;;;;;4595665;19;20006;-68
2023/10/05 10:14:22;;;;;;;6.90;4.60;;;16.80;99.90;;;;;;4595546;19;20037;-68
2023/10/05 10:15:58;;;;;;;7.90;4.70;;;16.80;99.90;;;;;;4594236;19;20038;-68
2023/10/05 10:17:36;;;;;;;8.23;4.55;;;16.90;99.90;;;;;;4595282;19;20007;-68
2023/10/05 10:19:20;;;;;;;8.40;4.38;;;16.80;99.90;;;;;;4594418;19;20006;-68
2023/10/05 10:20:56;;;;;;;7.63;4.22;;;16.80;99.90;;;;;;4593782;19;20006;-68